Terminal Aerodrome Forecast
Issued by NWS

Home | Current Version | Previous Version | Text Only | Print | Product List | Glossary On
Versions: 1 2 3 4 5 6 7 8 9 10 11 12 13 14 15 16 17
000
FTUS45 KSLC 072320
TAFPVU
TAF
KPVU 072320Z 0800/0824 VRB04KT P6SM SCT040 SCT120
     FM081200 10005KT P6SM BKN100
     FM081600 12006KT P6SM BKN060
     FM082300 16008KT P6SM VCSH BKN040
      AMD LTD TO CLD VIS AND WIND=

USA.gov is the U.S. government's official web portal to all federal, state and local government web resources and services.